createdAt,value
2023-03-15T00:03:46.755Z,3.90
2023-03-15T00:07:48.726Z,3.80
2023-03-15T00:11:51.405Z,3.80
2023-03-15T00:15:56.505Z,3.80
2023-03-15T00:19:58.260Z,3.70
2023-03-15T00:24:00.107Z,3.80
2023-03-15T00:28:01.978Z,3.70
2023-03-15T00:32:03.948Z,3.70
2023-03-15T00:36:07.614Z,3.70
2023-03-15T00:40:10.253Z,3.60
2023-03-15T00:44:12.357Z,3.10
2023-03-15T00:48:14.032Z,2.80
2023-03-15T00:52:15.834Z,2.60
2023-03-15T00:56:20.813Z,2.50
2023-03-15T01:00:24.819Z,2.50
2023-03-15T01:04:26.663Z,2.50
2023-03-15T01:08:28.322Z,2.50
2023-03-15T01:12:32.509Z,2.50
2023-03-15T01:16:34.420Z,2.50
2023-03-15T01:20:36.170Z,2.40
2023-03-15T01:24:38.032Z,2.40
2023-03-15T01:28:40.033Z,2.40
2023-03-15T01:32:41.768Z,2.40
2023-03-15T01:36:43.439Z,2.20
2023-03-15T01:40:46.293Z,2.20
2023-03-15T01:44:54.261Z,2.00
2023-03-15T01:49:14.167Z,2.00
2023-03-15T01:53:16.462Z,2.00
2023-03-15T01:57:25.747Z,2.00
2023-03-15T02:01:28.195Z,2.00
2023-03-15T02:05:34.143Z,2.10
2023-03-15T02:09:52.490Z,2.00
2023-03-15T02:13:56.295Z,2.00
2023-03-15T02:17:58.052Z,2.10
2023-03-15T02:22:18.590Z,2.20
2023-03-15T02:26:25.947Z,2.20
2023-03-15T02:30:27.657Z,2.30
2023-03-15T02:34:29.280Z,2.30
2023-03-15T02:38:30.918Z,2.30
2023-03-15T02:42:32.578Z,2.40
2023-03-15T02:46:35.466Z,2.30
2023-03-15T02:50:37.491Z,2.50
2023-03-15T02:54:43.083Z,2.50
2023-03-15T02:58:45.708Z,2.60
2023-03-15T03:02:48.492Z,2.60
2023-03-15T03:06:50.194Z,2.60
2023-03-15T03:10:51.848Z,2.70
2023-03-15T03:14:53.513Z,2.80
2023-03-15T03:18:55.295Z,2.90
2023-03-15T03:22:56.964Z,2.90
2023-03-15T03:26:58.611Z,3.00
2023-03-15T03:31:00.573Z,3.00
2023-03-15T03:35:02.306Z,3.00
2023-03-15T03:39:04.397Z,2.90
2023-03-15T03:43:07.030Z,2.80
2023-03-15T03:47:08.806Z,2.60
2023-03-15T03:51:11.192Z,2.40
2023-03-15T03:55:13.630Z,2.30
2023-03-15T03:59:15.326Z,2.10
2023-03-15T04:03:16.934Z,1.90
2023-03-15T04:07:18.576Z,1.70
2023-03-15T04:11:20.251Z,1.60
2023-03-15T04:15:22.956Z,1.50
2023-03-15T04:19:24.811Z,1.40
2023-03-15T04:23:26.622Z,1.40
2023-03-15T04:27:29.552Z,1.30
2023-03-15T04:31:37.559Z,1.30
2023-03-15T04:35:39.399Z,1.30
2023-03-15T04:39:42.661Z,1.30
2023-03-15T04:43:45.122Z,1.30
2023-03-15T04:47:46.899Z,1.20
2023-03-15T04:51:48.586Z,1.20
2023-03-15T04:55:50.757Z,1.20
2023-03-15T04:59:52.414Z,1.10
2023-03-15T05:03:54.135Z,1.20
2023-03-15T05:07:55.826Z,1.30
2023-03-15T05:11:57.463Z,1.40
2023-03-15T05:15:59.110Z,1.40
2023-03-15T05:20:10.988Z,1.40
2023-03-15T05:24:12.601Z,1.50
2023-03-15T05:28:18.243Z,1.70
2023-03-15T05:32:20.018Z,1.70
2023-03-15T05:36:21.908Z,1.70
2023-03-15T05:40:23.651Z,1.70
2023-03-15T05:44:25.308Z,1.70
2023-03-15T05:48:27.544Z,1.70
2023-03-15T05:52:29.210Z,1.80
2023-03-15T05:56:30.844Z,2.00
2023-03-15T06:00:33.472Z,2.20
2023-03-15T06:04:36.401Z,2.10
2023-03-15T06:08:38.106Z,2.20
2023-03-15T06:12:39.763Z,2.20
2023-03-15T06:16:41.519Z,2.20
2023-03-15T06:20:44.123Z,2.30
2023-03-15T06:24:46.345Z,2.30
2023-03-15T06:28:47.985Z,2.30
2023-03-15T06:32:49.767Z,2.30
2023-03-15T06:36:52.416Z,2.30
2023-03-15T06:40:55.626Z,2.40
2023-03-15T06:44:57.445Z,2.40
2023-03-15T06:48:59.142Z,2.30
2023-03-15T06:53:00.864Z,2.20
2023-03-15T06:57:02.576Z,2.30
2023-03-15T07:01:04.436Z,2.30
2023-03-15T07:07:29.984Z,2.40
2023-03-15T07:11:32.463Z,2.40
2023-03-15T07:15:36.557Z,2.50
2023-03-15T07:19:46.838Z,2.60
2023-03-15T07:23:55.789Z,2.50
2023-03-15T07:27:57.399Z,2.80
2023-03-15T07:32:01.251Z,2.90
2023-03-15T07:36:06.844Z,2.90
2023-03-15T07:40:09.862Z,2.90
2023-03-15T07:44:11.557Z,3.00
2023-03-15T07:48:13.342Z,3.10
2023-03-15T07:52:14.990Z,3.10
2023-03-15T07:56:16.827Z,3.30
2023-03-15T08:00:19.149Z,3.40
2023-03-15T08:04:21.154Z,3.50
2023-03-15T08:08:22.930Z,3.70
2023-03-15T08:12:25.076Z,3.90
2023-03-15T08:16:26.875Z,4.00
2023-03-15T08:20:29.902Z,4.20
2023-03-15T08:24:31.937Z,4.40
2023-03-15T08:28:33.570Z,4.50
2023-03-15T08:32:35.267Z,4.70
2023-03-15T08:36:36.981Z,4.70
2023-03-15T08:40:39.905Z,4.80
2023-03-15T08:44:41.777Z,5.20
2023-03-15T08:48:43.461Z,5.00
2023-03-15T08:52:45.140Z,4.60
2023-03-15T08:56:46.768Z,4.70
2023-03-15T09:00:49.773Z,4.50
2023-03-15T09:04:53.428Z,4.30
2023-03-15T09:08:55.727Z,4.60
2023-03-15T09:12:57.550Z,4.80
2023-03-15T09:16:59.171Z,5.30
2023-03-15T09:21:01.585Z,5.80
2023-03-15T09:25:04.488Z,6.00
2023-03-15T09:29:06.098Z,5.90
2023-03-15T09:33:08.676Z,5.60
2023-03-15T09:37:10.520Z,5.90
2023-03-15T09:41:27.440Z,6.10
2023-03-15T09:46:00.003Z,6.20
2023-03-15T09:50:13.042Z,7.30
2023-03-15T09:54:35.963Z,7.70
2023-03-15T09:58:37.709Z,6.90
2023-03-15T10:02:46.608Z,7.20
2023-03-15T10:06:54.072Z,9.00
2023-03-15T10:11:16.595Z,11.10
2023-03-15T10:15:32.599Z,12.60
2023-03-15T10:19:39.649Z,11.40
2023-03-15T10:23:52.940Z,10.10
2023-03-15T10:27:57.196Z,9.20
2023-03-15T10:31:59.086Z,10.30
2023-03-15T10:36:10.912Z,11.90
2023-03-15T10:40:16.167Z,11.10
2023-03-15T10:44:25.012Z,10.30
2023-03-15T10:48:28.424Z,9.30
2023-03-15T10:52:39.697Z,8.10
2023-03-15T10:57:07.021Z,7.50
2023-03-15T11:01:22.064Z,7.60
2023-03-15T11:05:23.703Z,7.60
2023-03-15T11:09:27.012Z,7.20
2023-03-15T11:13:30.854Z,7.50
2023-03-15T11:17:35.470Z,7.20
2023-03-15T11:21:38.265Z,7.20
2023-03-15T11:25:40.006Z,7.30
2023-03-15T11:29:54.933Z,7.20
2023-03-15T11:34:18.680Z,7.00
2023-03-15T11:38:33.266Z,6.70
2023-03-15T11:42:58.707Z,8.50
2023-03-15T11:47:28.074Z,10.20
2023-03-15T11:51:34.846Z,9.80
2023-03-15T11:55:37.850Z,8.90
2023-03-15T11:59:40.386Z,8.80
2023-03-15T12:03:44.468Z,8.70
2023-03-15T12:08:15.386Z,9.10
2023-03-15T12:12:26.270Z,9.00
2023-03-15T12:16:36.753Z,8.30
2023-03-15T12:20:42.664Z,8.40
2023-03-15T12:24:47.995Z,11.20
2023-03-15T12:29:11.940Z,13.10
2023-03-15T12:33:17.827Z,14.80
2023-03-15T12:37:23.025Z,15.50
2023-03-15T12:41:37.149Z,15.90
2023-03-15T12:45:41.170Z,16.40
2023-03-15T12:49:44.723Z,15.00
2023-03-15T12:53:49.264Z,13.10
2023-03-15T12:57:54.047Z,12.30
2023-03-15T13:01:57.965Z,11.40
2023-03-15T13:06:32.857Z,12.50
2023-03-15T13:10:49.571Z,13.80
2023-03-15T13:15:06.986Z,15.00
2023-03-15T13:19:30.301Z,15.40
2023-03-15T13:23:35.332Z,15.90
2023-03-15T13:27:56.163Z,16.10
2023-03-15T13:32:19.522Z,16.50
2023-03-15T13:36:23.367Z,17.10
2023-03-15T13:40:25.034Z,16.80
2023-03-15T13:44:27.833Z,16.50
2023-03-15T13:48:35.611Z,16.20
2023-03-15T13:52:37.447Z,16.10
2023-03-15T13:57:10.704Z,15.80
2023-03-15T14:01:14.151Z,15.50
2023-03-15T14:05:18.975Z,15.60
2023-03-15T14:09:25.801Z,15.80
2023-03-15T14:13:46.095Z,15.70
2023-03-15T14:18:00.620Z,16.80
2023-03-15T14:22:12.520Z,16.30
2023-03-15T14:26:23.334Z,16.20
2023-03-15T14:30:25.806Z,15.50
2023-03-15T14:34:37.123Z,15.50
2023-03-15T14:38:39.625Z,15.30
2023-03-15T14:42:41.727Z,14.60
2023-03-15T14:46:43.589Z,13.30
2023-03-15T14:50:46.059Z,11.90
2023-03-15T14:54:50.414Z,11.00
2023-03-15T14:58:55.478Z,10.40
2023-03-15T15:02:58.050Z,9.70
2023-03-15T15:07:02.908Z,9.20
2023-03-15T15:11:04.813Z,9.20
2023-03-15T15:15:15.692Z,9.00
2023-03-15T15:19:17.851Z,8.90
2023-03-15T15:23:22.151Z,8.90
2023-03-15T15:27:23.804Z,8.80
2023-03-15T15:31:34.068Z,8.70
2023-03-15T15:35:35.894Z,8.60
2023-03-15T15:39:37.588Z,8.60
2023-03-15T15:43:39.402Z,8.60
2023-03-15T15:47:41.405Z,8.40
2023-03-15T15:51:51.926Z,8.50
2023-03-15T15:55:53.594Z,8.50
2023-03-15T15:59:55.193Z,8.30
2023-03-15T16:03:57.404Z,8.20
2023-03-15T16:08:03.213Z,8.20
2023-03-15T16:12:17.505Z,8.10
2023-03-15T16:16:19.518Z,8.10
2023-03-15T16:20:21.471Z,8.10
2023-03-15T16:24:27.886Z,7.90
2023-03-15T16:28:29.593Z,7.90
2023-03-15T16:32:43.566Z,7.90
2023-03-15T16:36:49.591Z,7.70
2023-03-15T16:40:52.877Z,7.50
2023-03-15T16:44:54.531Z,7.60
2023-03-15T16:48:56.219Z,7.40
2023-03-15T16:53:01.209Z,7.30
2023-03-15T16:57:03.069Z,7.20
2023-03-15T17:01:07.647Z,7.00
2023-03-15T17:05:09.412Z,6.80
2023-03-15T17:09:14.974Z,6.60
2023-03-15T17:13:24.591Z,6.30
2023-03-15T17:17:28.151Z,6.10
2023-03-15T17:21:34.262Z,6.00
2023-03-15T17:25:36.087Z,5.80
2023-03-15T17:29:37.716Z,5.70
2023-03-15T17:33:39.333Z,5.60
2023-03-15T17:37:45.273Z,5.40
2023-03-15T17:41:48.282Z,5.30
2023-03-15T17:45:49.965Z,5.00
2023-03-15T17:49:52.446Z,4.80
2023-03-15T17:53:55.219Z,4.70
2023-03-15T17:57:57.051Z,4.50
2023-03-15T18:01:58.718Z,4.30
2023-03-15T18:06:01.310Z,4.10
2023-03-15T18:10:03.111Z,3.80
2023-03-15T18:14:05.005Z,3.60
2023-03-15T18:18:06.768Z,3.40
2023-03-15T18:22:16.908Z,3.20
2023-03-15T18:26:20.004Z,3.10
2023-03-15T18:30:24.456Z,2.90
2023-03-15T18:34:26.126Z,2.70
2023-03-15T18:38:27.823Z,2.60
2023-03-15T18:42:29.492Z,2.50
2023-03-15T18:46:31.743Z,2.30
2023-03-15T18:50:34.630Z,2.20
2023-03-15T18:54:36.981Z,2.20
2023-03-15T18:58:38.770Z,2.10
2023-03-15T19:02:45.887Z,2.00
2023-03-15T19:06:47.464Z,2.00
2023-03-15T19:10:49.130Z,1.90
2023-03-15T19:14:50.770Z,1.90
2023-03-15T19:18:52.653Z,1.80
2023-03-15T19:22:54.374Z,1.80
2023-03-15T19:26:56.028Z,1.70
2023-03-15T19:30:58.091Z,1.60
2023-03-15T19:35:00.055Z,1.60
2023-03-15T19:39:03.545Z,1.60
2023-03-15T19:43:05.279Z,1.60
2023-03-15T19:47:07.048Z,1.60
2023-03-15T19:51:08.729Z,1.60
2023-03-15T19:55:10.381Z,1.60
2023-03-15T19:59:12.375Z,1.60
2023-03-15T20:03:14.038Z,1.70
2023-03-15T20:07:16.651Z,1.70
2023-03-15T20:11:24.945Z,1.70
2023-03-15T20:15:28.231Z,1.80
2023-03-15T20:19:32.717Z,2.00
2023-03-15T20:23:35.724Z,2.00
2023-03-15T20:27:37.572Z,2.10
2023-03-15T20:31:39.736Z,2.20
2023-03-15T20:35:41.476Z,2.30
2023-03-15T20:39:43.406Z,2.40
2023-03-15T20:43:46.406Z,2.50
2023-03-15T20:47:48.124Z,2.60
2023-03-15T20:51:49.825Z,2.70
2023-03-15T20:55:51.552Z,2.80
2023-03-15T20:59:53.588Z,2.70
2023-03-15T21:03:56.164Z,2.80
2023-03-15T21:07:58.012Z,2.90
2023-03-15T21:12:00.449Z,2.80
2023-03-15T21:16:04.310Z,2.80
2023-03-15T21:20:07.220Z,2.80
2023-03-15T21:24:09.980Z,2.80
2023-03-15T21:28:11.627Z,2.80
2023-03-15T21:32:13.277Z,2.70
2023-03-15T21:36:15.120Z,2.70
2023-03-15T21:40:17.146Z,2.50
2023-03-15T21:44:18.816Z,2.40
2023-03-15T21:48:20.616Z,2.40
2023-03-15T21:52:22.935Z,2.40
2023-03-15T21:56:26.157Z,2.40
2023-03-15T22:00:29.044Z,2.40
2023-03-15T22:04:33.722Z,2.50
2023-03-15T22:08:35.437Z,2.50
2023-03-15T22:12:38.029Z,2.60
2023-03-15T22:16:39.677Z,2.70
2023-03-15T22:20:41.572Z,2.80
2023-03-15T22:24:43.229Z,3.00
2023-03-15T22:28:44.906Z,3.00
2023-03-15T22:32:46.755Z,3.10
2023-03-15T22:36:48.366Z,3.00
2023-03-15T22:40:50.410Z,3.00
2023-03-15T22:44:52.065Z,3.00
2023-03-15T22:48:54.107Z,2.90
2023-03-15T22:52:55.753Z,2.90
2023-03-15T22:56:57.361Z,2.80
2023-03-15T23:00:59.374Z,2.80
2023-03-15T23:05:01.545Z,2.80
2023-03-15T23:09:05.622Z,2.80
2023-03-15T23:13:08.560Z,2.70
2023-03-15T23:17:11.255Z,2.70
2023-03-15T23:21:14.918Z,2.70
2023-03-15T23:25:22.413Z,2.80
2023-03-15T23:29:24.339Z,2.70
2023-03-15T23:33:25.937Z,2.80
2023-03-15T23:37:28.474Z,2.80
2023-03-15T23:41:30.164Z,2.90
2023-03-15T23:45:31.910Z,3.00
2023-03-15T23:49:33.928Z,3.10
2023-03-15T23:53:35.766Z,3.10
2023-03-15T23:57:37.430Z,3.10
